createdAt,value
2022-09-21T00:01:23.818Z,35.20
2022-09-21T00:03:56.062Z,35.20
2022-09-21T00:06:24.798Z,35.10
2022-09-21T00:08:52.167Z,35.20
2022-09-21T00:11:25.060Z,35.60
2022-09-21T00:13:57.851Z,35.60
2022-09-21T00:16:26.685Z,35.60
2022-09-21T00:18:53.701Z,35.40
2022-09-21T00:21:21.507Z,35.20
2022-09-21T00:23:49.378Z,34.80
2022-09-21T00:26:19.137Z,34.70
2022-09-21T00:28:46.401Z,34.80
2022-09-21T00:31:16.098Z,34.80
2022-09-21T00:33:43.820Z,34.90
2022-09-21T00:36:19.894Z,35.30
2022-09-21T00:38:54.875Z,35.60
2022-09-21T00:41:22.993Z,35.80
2022-09-21T00:44:28.008Z,35.80
2022-09-21T00:46:58.703Z,35.90
2022-09-21T00:49:27.968Z,36.10
2022-09-21T00:51:58.998Z,35.90
2022-09-21T00:54:33.636Z,35.40
2022-09-21T00:57:03.025Z,35.50
2022-09-21T00:59:32.899Z,35.50
2022-09-21T01:02:00.446Z,35.70
2022-09-21T01:04:28.682Z,35.60
2022-09-21T01:06:58.916Z,35.30
2022-09-21T01:09:26.632Z,35.40
2022-09-21T01:11:59.424Z,35.80
2022-09-21T01:14:37.121Z,36.10
2022-09-21T01:17:29.022Z,36.30
2022-09-21T01:20:15.989Z,36.60
2022-09-21T01:22:55.002Z,36.60
2022-09-21T01:25:52.985Z,36.70
2022-09-21T01:28:38.456Z,36.60
2022-09-21T01:31:07.525Z,36.70
2022-09-21T01:33:39.922Z,36.60
2022-09-21T01:36:12.459Z,36.50
2022-09-21T01:38:46.754Z,36.30
2022-09-21T01:41:18.315Z,36.20
2022-09-21T01:43:57.699Z,36.10
2022-09-21T01:46:29.732Z,35.90
2022-09-21T01:49:06.866Z,35.90
2022-09-21T01:51:35.226Z,35.90
2022-09-21T01:54:08.325Z,35.80
2022-09-21T01:56:46.988Z,35.80
2022-09-21T01:59:27.648Z,35.00
2022-09-21T02:02:02.552Z,35.00
2022-09-21T02:04:29.692Z,35.30
2022-09-21T02:06:56.743Z,35.60
2022-09-21T02:09:24.469Z,35.50
2022-09-21T02:11:51.408Z,35.40
2022-09-21T02:14:25.220Z,34.70
2022-09-21T02:17:25.592Z,34.90
2022-09-21T02:20:19.547Z,35.10
2022-09-21T02:22:52.122Z,35.20
2022-09-21T02:25:31.325Z,35.00
2022-09-21T02:28:15.287Z,35.10
2022-09-21T02:30:53.678Z,34.70
2022-09-21T02:33:32.721Z,35.30
2022-09-21T02:36:10.394Z,35.80
2022-09-21T02:38:47.779Z,36.10
2022-09-21T02:41:19.981Z,36.30
2022-09-21T02:44:00.615Z,36.60
2022-09-21T02:46:39.590Z,36.70
2022-09-21T02:49:16.155Z,36.60
2022-09-21T02:51:51.150Z,36.30
2022-09-21T02:54:25.773Z,36.40
2022-09-21T02:56:54.552Z,36.50
2022-09-21T02:59:23.793Z,36.60
2022-09-21T03:01:52.068Z,36.40
2022-09-21T03:04:19.153Z,36.40
2022-09-21T03:06:46.075Z,36.40
2022-09-21T03:09:13.101Z,36.40
2022-09-21T03:11:42.448Z,36.60
2022-09-21T03:14:09.519Z,36.80
2022-09-21T03:16:37.153Z,36.80
2022-09-21T03:19:04.567Z,36.60
2022-09-21T03:21:31.840Z,36.40
2022-09-21T03:23:58.861Z,36.20
2022-09-21T03:26:25.779Z,36.30
2022-09-21T03:28:54.884Z,36.40
2022-09-21T03:31:23.057Z,36.50
2022-09-21T03:33:50.214Z,36.60
2022-09-21T03:36:18.479Z,36.80
2022-09-21T03:38:45.609Z,36.90
2022-09-21T03:41:15.279Z,36.90
2022-09-21T03:43:42.511Z,36.90
2022-09-21T03:46:10.905Z,36.90
2022-09-21T03:48:38.198Z,36.90
2022-09-21T03:51:05.525Z,37.00
2022-09-21T03:53:32.464Z,37.10
2022-09-21T03:55:59.385Z,37.20
2022-09-21T03:58:26.572Z,37.30
2022-09-21T04:00:54.675Z,37.30
2022-09-21T04:03:21.642Z,37.30
2022-09-21T04:05:49.599Z,37.30
2022-09-21T04:08:16.816Z,37.20
2022-09-21T04:10:44.495Z,36.30
2022-09-21T04:13:13.658Z,36.20
2022-09-21T04:15:40.697Z,36.30
2022-09-21T04:18:08.271Z,36.40
2022-09-21T04:20:35.429Z,36.50
2022-09-21T04:23:03.913Z,36.50
2022-09-21T04:25:30.822Z,36.30
2022-09-21T04:27:57.713Z,36.60
2022-09-21T04:30:24.704Z,36.80
2022-09-21T04:32:51.766Z,37.00
2022-09-21T04:35:18.740Z,36.90
2022-09-21T04:37:45.715Z,36.70
2022-09-21T04:40:13.077Z,36.50
2022-09-21T04:42:40.173Z,36.50
2022-09-21T04:45:08.044Z,36.30
2022-09-21T04:47:35.089Z,36.20
2022-09-21T04:50:01.999Z,36.00
2022-09-21T04:52:28.891Z,36.20
2022-09-21T04:54:57.172Z,36.30
2022-09-21T04:57:24.330Z,36.00
2022-09-21T04:59:51.324Z,35.60
2022-09-21T05:02:18.306Z,35.70
2022-09-21T05:04:50.092Z,35.80
2022-09-21T05:07:17.923Z,35.80
2022-09-21T05:10:03.729Z,35.90
2022-09-21T05:12:31.976Z,35.90
2022-09-21T05:14:59.269Z,34.80
2022-09-21T05:17:26.309Z,34.80
2022-09-21T05:19:53.845Z,34.80
2022-09-21T05:22:21.408Z,34.70
2022-09-21T05:24:48.862Z,35.20
2022-09-21T05:27:15.829Z,35.80
2022-09-21T05:29:42.980Z,35.80
2022-09-21T05:32:35.031Z,36.30
2022-09-21T05:35:05.888Z,36.80
2022-09-21T05:37:48.568Z,36.90
2022-09-21T05:40:16.062Z,36.70
2022-09-21T05:42:43.272Z,36.40
2022-09-21T05:45:19.106Z,36.60
2022-09-21T05:47:54.485Z,36.40
2022-09-21T05:50:24.847Z,36.30
2022-09-21T05:53:05.005Z,36.80
2022-09-21T05:55:54.766Z,37.10
2022-09-21T05:59:05.049Z,36.80
2022-09-21T06:02:13.705Z,37.10
2022-09-21T06:04:41.124Z,36.70
2022-09-21T06:07:08.079Z,37.00
2022-09-21T06:09:35.024Z,37.10
2022-09-21T06:12:02.447Z,36.80
2022-09-21T06:14:29.479Z,36.70
2022-09-21T06:16:56.479Z,37.10
2022-09-21T06:19:23.679Z,37.10
2022-09-21T06:21:50.741Z,36.90
2022-09-21T06:24:18.034Z,36.90
2022-09-21T06:26:45.002Z,37.60
2022-09-21T06:29:11.934Z,38.10
2022-09-21T06:31:40.753Z,38.40
2022-09-21T06:34:09.847Z,38.20
2022-09-21T06:36:36.897Z,37.60
2022-09-21T06:39:11.175Z,37.30
2022-09-21T06:41:38.487Z,37.10
2022-09-21T06:44:05.688Z,36.80
2022-09-21T06:46:33.198Z,36.60
2022-09-21T06:49:00.230Z,36.60
2022-09-21T06:51:27.199Z,37.00
2022-09-21T06:53:58.533Z,37.00
2022-09-21T06:56:26.266Z,37.20
2022-09-21T06:58:53.725Z,37.50
2022-09-21T07:01:21.486Z,37.60
2022-09-21T07:03:52.366Z,37.60
2022-09-21T07:06:20.778Z,37.70
2022-09-21T07:11:41.288Z,38.50
2022-09-21T07:14:08.471Z,38.90
2022-09-21T07:16:36.141Z,39.00
2022-09-21T07:19:10.918Z,38.90
2022-09-21T07:21:38.886Z,39.10
2022-09-21T07:24:09.712Z,39.00
2022-09-21T07:26:38.820Z,39.00
2022-09-21T07:29:05.966Z,38.90
2022-09-21T07:31:32.990Z,38.80
2022-09-21T07:33:59.974Z,38.40
2022-09-21T07:36:27.002Z,38.60
2022-09-21T07:39:04.242Z,38.60
2022-09-21T07:41:31.200Z,38.80
2022-09-21T07:43:58.216Z,39.10
2022-09-21T07:46:26.850Z,38.90
2022-09-21T07:48:55.177Z,38.90
2022-09-21T07:51:22.971Z,38.90
2022-09-21T07:53:57.401Z,39.10
2022-09-21T07:56:25.414Z,39.20
2022-09-21T07:59:07.813Z,39.30
2022-09-21T08:01:41.108Z,39.30
2022-09-21T08:04:10.731Z,39.40
2022-09-21T08:06:40.378Z,39.00
2022-09-21T08:09:08.723Z,38.70
2022-09-21T08:11:37.553Z,38.80
2022-09-21T08:14:04.768Z,38.80
2022-09-21T08:16:32.697Z,39.50
2022-09-21T08:19:00.013Z,40.00
2022-09-21T08:21:26.981Z,40.50
2022-09-21T08:23:54.166Z,41.60
2022-09-21T08:26:21.579Z,42.40
2022-09-21T08:28:51.658Z,43.20
2022-09-21T08:31:21.302Z,43.90
2022-09-21T08:33:50.177Z,44.40
2022-09-21T08:36:18.283Z,44.70
2022-09-21T08:38:45.578Z,44.90
2022-09-21T08:41:44.772Z,45.30
2022-09-21T08:44:40.336Z,45.60
2022-09-21T08:47:12.054Z,45.80
2022-09-21T08:49:41.406Z,45.60
2022-09-21T08:52:16.081Z,45.50
2022-09-21T08:54:53.862Z,46.20
2022-09-21T08:57:23.142Z,46.70
2022-09-21T08:59:50.785Z,46.60
2022-09-21T09:02:55.002Z,46.30
2022-09-21T09:05:51.139Z,45.10
2022-09-21T09:09:00.510Z,44.10
2022-09-21T09:11:42.426Z,43.00
2022-09-21T09:14:25.420Z,42.50
2022-09-21T09:16:58.624Z,42.20
2022-09-21T09:19:55.845Z,42.30
2022-09-21T09:22:29.870Z,42.70
2022-09-21T09:37:31.303Z,36.70
2022-09-21T09:40:00.914Z,40.90
2022-09-21T09:42:50.181Z,42.10
2022-09-21T09:45:46.259Z,42.60
2022-09-21T09:48:38.878Z,42.60
2022-09-21T09:51:08.041Z,43.10
2022-09-21T09:53:36.208Z,43.40
2022-09-21T09:56:03.213Z,43.50
2022-09-21T09:58:37.070Z,43.50
2022-09-21T10:01:05.462Z,43.40
2022-09-21T10:03:33.865Z,43.20
2022-09-21T10:06:00.847Z,43.20
2022-09-21T10:08:38.787Z,42.70
2022-09-21T10:11:06.415Z,42.30
2022-09-21T10:13:38.760Z,42.70
2022-09-21T10:16:10.238Z,43.10
2022-09-21T10:19:01.677Z,44.00
2022-09-21T10:21:40.860Z,44.30
2022-09-21T10:24:24.058Z,43.80
2022-09-21T10:26:54.988Z,43.60
2022-09-21T10:29:27.280Z,43.40
2022-09-21T10:32:11.135Z,43.70
2022-09-21T10:34:59.353Z,44.10
2022-09-21T10:37:37.627Z,44.00
2022-09-21T10:40:23.139Z,43.50
2022-09-21T10:42:56.117Z,43.40
2022-09-21T10:45:37.343Z,42.80
2022-09-21T10:48:17.768Z,42.00
2022-09-21T10:50:46.988Z,41.90
2022-09-21T10:53:25.571Z,42.50
2022-09-21T10:56:18.937Z,43.40
2022-09-21T10:59:19.823Z,44.50
2022-09-21T11:01:52.356Z,44.80
2022-09-21T11:04:41.155Z,44.80
2022-09-21T11:07:20.898Z,44.70
2022-09-21T11:09:53.542Z,44.10
2022-09-21T11:12:44.674Z,43.80
2022-09-21T11:15:24.095Z,43.90
2022-09-21T11:18:18.448Z,44.10
2022-09-21T11:21:13.952Z,44.90
2022-09-21T11:23:59.841Z,45.50
2022-09-21T11:26:46.792Z,46.00
2022-09-21T11:32:24.752Z,45.20
2022-09-21T11:35:22.241Z,45.10
2022-09-21T11:38:10.891Z,45.00
2022-09-21T11:40:43.957Z,44.90
2022-09-21T11:43:47.997Z,44.90
2022-09-21T11:46:38.664Z,44.50
2022-09-21T11:49:11.361Z,44.40
2022-09-21T11:51:57.266Z,44.20
2022-09-21T11:54:57.387Z,44.00
2022-09-21T11:57:30.098Z,44.50
2022-09-21T12:00:05.557Z,44.90
2022-09-21T12:02:35.434Z,45.80
2022-09-21T12:05:26.630Z,46.50
2022-09-21T12:08:08.490Z,46.10
2022-09-21T12:10:46.979Z,46.00
2022-09-21T12:13:23.079Z,45.80
2022-09-21T12:16:00.201Z,46.30
2022-09-21T12:18:59.304Z,46.00
2022-09-21T12:21:41.639Z,46.30
2022-09-21T12:24:33.304Z,46.90
2022-09-21T12:27:11.791Z,47.20
2022-09-21T12:32:59.718Z,47.00
2022-09-21T12:35:42.958Z,46.80
2022-09-21T12:38:38.197Z,46.10
2022-09-21T12:41:09.821Z,45.70
2022-09-21T12:43:46.951Z,45.00
2022-09-21T12:46:33.082Z,44.50
2022-09-21T12:49:03.411Z,44.40
2022-09-21T12:51:42.287Z,44.30
2022-09-21T12:54:36.624Z,44.60
2022-09-21T12:58:04.490Z,45.40
2022-09-21T13:01:06.500Z,45.40
2022-09-21T13:03:56.692Z,45.60
2022-09-21T13:06:41.286Z,45.60
2022-09-21T13:09:15.604Z,45.10
2022-09-21T13:12:00.303Z,45.40
2022-09-21T13:14:35.271Z,45.60
2022-09-21T13:17:05.981Z,44.80
2022-09-21T13:19:35.559Z,44.00
2022-09-21T13:22:20.139Z,43.80
2022-09-21T13:25:02.143Z,44.20
2022-09-21T13:28:00.747Z,44.80
2022-09-21T13:30:32.779Z,45.20
2022-09-21T13:33:00.708Z,45.80
2022-09-21T13:36:02.790Z,45.70
2022-09-21T13:38:41.752Z,45.80
2022-09-21T13:41:17.610Z,46.30
2022-09-21T13:43:59.812Z,46.40
2022-09-21T13:46:35.379Z,46.10
2022-09-21T13:49:14.160Z,46.10
2022-09-21T13:52:05.346Z,46.30
2022-09-21T13:55:00.320Z,46.30
2022-09-21T13:57:38.863Z,46.30
2022-09-21T14:00:29.137Z,46.20
2022-09-21T14:03:21.602Z,46.10
2022-09-21T14:05:54.806Z,46.20
2022-09-21T14:08:32.965Z,46.20
2022-09-21T14:11:28.425Z,45.90
2022-09-21T14:14:21.767Z,46.30
2022-09-21T14:16:55.842Z,45.80
2022-09-21T14:19:23.283Z,45.70
2022-09-21T14:22:08.059Z,45.60
2022-09-21T14:24:44.174Z,45.40
2022-09-21T14:27:17.987Z,45.10
2022-09-21T14:30:15.866Z,45.20
2022-09-21T14:33:02.463Z,44.80
2022-09-21T14:35:38.498Z,45.00
2022-09-21T14:38:16.101Z,45.00
2022-09-21T14:40:49.146Z,44.90
2022-09-21T14:43:25.062Z,44.50
2022-09-21T14:46:04.140Z,44.00
2022-09-21T14:48:55.898Z,42.90
2022-09-21T14:51:31.926Z,42.40
2022-09-21T14:54:17.538Z,42.10
2022-09-21T14:57:12.539Z,42.10
2022-09-21T15:00:00.127Z,42.10
2022-09-21T15:02:31.535Z,41.80
2022-09-21T15:05:37.460Z,41.90
2022-09-21T15:08:54.026Z,42.10
2022-09-21T15:11:57.445Z,41.50
2022-09-21T15:14:43.624Z,41.00
2022-09-21T15:17:29.907Z,40.80
2022-09-21T15:20:01.900Z,40.50
2022-09-21T15:22:29.069Z,40.30
2022-09-21T15:24:59.501Z,39.90
2022-09-21T15:27:33.643Z,39.40
2022-09-21T15:30:04.272Z,39.50
2022-09-21T15:32:41.055Z,39.30
2022-09-21T15:35:16.822Z,38.90
2022-09-21T15:37:45.845Z,38.90
2022-09-21T15:40:22.339Z,38.80
2022-09-21T15:43:06.572Z,39.10
2022-09-21T15:45:37.761Z,38.80
2022-09-21T15:48:12.810Z,38.80
2022-09-21T15:50:43.144Z,38.90
2022-09-21T15:53:21.916Z,38.60
2022-09-21T15:55:50.452Z,38.50
2022-09-21T15:58:37.498Z,38.30
2022-09-21T16:01:15.715Z,38.40
2022-09-21T16:03:43.885Z,38.40
2022-09-21T16:06:35.928Z,38.40
2022-09-21T16:09:25.415Z,38.40
2022-09-21T16:11:56.060Z,38.00
2022-09-21T16:14:41.998Z,38.00
2022-09-21T16:17:22.203Z,38.20
2022-09-21T16:20:19.881Z,38.10
2022-09-21T16:22:51.074Z,37.90
2022-09-21T16:25:20.640Z,37.90
2022-09-21T16:27:58.253Z,37.60
2022-09-21T16:30:51.380Z,37.60
2022-09-21T16:33:38.808Z,37.80
2022-09-21T16:37:04.348Z,37.80
2022-09-21T16:39:31.468Z,37.60
2022-09-21T16:42:03.141Z,37.70
2022-09-21T16:44:34.503Z,37.80
2022-09-21T16:47:03.547Z,37.90
2022-09-21T16:49:35.261Z,38.00
2022-09-21T16:52:03.666Z,38.00
2022-09-21T16:54:30.719Z,37.70
2022-09-21T16:57:00.960Z,37.60
2022-09-21T16:59:28.903Z,37.60
2022-09-21T17:01:58.047Z,37.70
2022-09-21T17:04:31.288Z,38.00
2022-09-21T17:06:58.618Z,38.10
2022-09-21T17:09:32.148Z,38.20
2022-09-21T17:12:01.441Z,38.10
2022-09-21T17:14:35.617Z,38.20
2022-09-21T17:17:33.222Z,38.10
2022-09-21T17:20:07.307Z,38.10
2022-09-21T17:22:34.267Z,38.10
2022-09-21T17:25:01.181Z,38.10
2022-09-21T17:27:29.865Z,38.00
2022-09-21T17:29:57.156Z,37.90
2022-09-21T17:32:24.970Z,38.10
2022-09-21T17:35:14.206Z,38.20
2022-09-21T17:37:45.023Z,38.30
2022-09-21T17:40:12.790Z,38.40
2022-09-21T17:42:45.859Z,38.40
2022-09-21T17:45:38.818Z,38.50
2022-09-21T17:48:16.639Z,38.50
2022-09-21T17:50:43.684Z,38.50
2022-09-21T17:53:29.371Z,38.60
2022-09-21T17:56:04.932Z,38.50
2022-09-21T17:58:57.685Z,38.50
2022-09-21T18:01:34.007Z,38.50
2022-09-21T18:04:01.619Z,38.50
2022-09-21T18:06:29.482Z,38.60
2022-09-21T18:08:57.502Z,38.60
2022-09-21T18:11:41.412Z,38.40
2022-09-21T18:14:34.578Z,38.30
2022-09-21T18:17:18.357Z,38.30
2022-09-21T18:20:08.902Z,38.30
2022-09-21T18:23:00.303Z,38.30
2022-09-21T18:25:32.172Z,38.30
2022-09-21T18:28:04.908Z,38.30
2022-09-21T18:30:32.623Z,38.30
2022-09-21T18:33:25.599Z,38.40
2022-09-21T18:36:34.677Z,38.40
2022-09-21T18:39:36.927Z,38.50
2022-09-21T18:42:06.682Z,38.50
2022-09-21T18:44:54.026Z,38.40
2022-09-21T18:47:29.717Z,38.40
2022-09-21T18:50:03.284Z,38.40
2022-09-21T18:52:41.921Z,38.40
2022-09-21T18:55:21.641Z,38.40
2022-09-21T18:57:48.826Z,38.40
2022-09-21T19:00:17.839Z,38.20
2022-09-21T19:03:05.426Z,37.40
2022-09-21T19:05:32.782Z,37.10
2022-09-21T19:08:14.839Z,37.10
2022-09-21T19:11:24.689Z,37.20
2022-09-21T19:14:06.997Z,37.30
2022-09-21T19:16:43.502Z,37.40
2022-09-21T19:19:16.634Z,37.30
2022-09-21T19:21:57.520Z,37.30
2022-09-21T19:24:32.179Z,37.30
2022-09-21T19:27:19.383Z,37.50
2022-09-21T19:30:03.897Z,37.50
2022-09-21T19:32:41.449Z,37.50
2022-09-21T19:35:22.452Z,37.50
2022-09-21T19:37:52.119Z,37.60
2022-09-21T19:40:24.193Z,37.60
2022-09-21T19:43:13.087Z,37.40
2022-09-21T19:45:54.927Z,37.00
2022-09-21T19:48:27.067Z,36.80
2022-09-21T19:51:24.543Z,36.30
2022-09-21T19:54:14.725Z,35.90
2022-09-21T19:57:12.861Z,36.20
2022-09-21T19:59:45.720Z,36.30
2022-09-21T20:02:29.743Z,36.40
2022-09-21T20:05:17.624Z,36.40
2022-09-21T20:07:55.227Z,36.30
2022-09-21T20:10:31.382Z,36.20
2022-09-21T20:13:38.914Z,36.50
2022-09-21T20:17:00.940Z,36.60
2022-09-21T20:19:31.236Z,36.70
2022-09-21T20:22:36.356Z,36.80
2022-09-21T20:25:09.699Z,36.80
2022-09-21T20:27:46.462Z,36.90
2022-09-21T20:30:15.940Z,36.80
2022-09-21T20:32:46.071Z,36.60
2022-09-21T20:35:21.310Z,36.50
2022-09-21T20:37:48.756Z,36.70
2022-09-21T20:40:15.992Z,36.60
2022-09-21T20:42:43.317Z,36.60
2022-09-21T20:45:11.782Z,36.50
2022-09-21T20:47:39.012Z,36.50
2022-09-21T20:50:11.713Z,36.60
2022-09-21T20:52:41.577Z,36.70
2022-09-21T20:55:13.653Z,36.80
2022-09-21T20:57:40.941Z,36.70
2022-09-21T21:00:16.010Z,36.60
2022-09-21T21:02:43.717Z,36.50
2022-09-21T21:05:11.390Z,36.50
2022-09-21T21:07:42.883Z,36.60
2022-09-21T21:10:14.145Z,36.40
2022-09-21T21:12:43.177Z,36.30
2022-09-21T21:15:12.897Z,36.10
2022-09-21T21:17:41.863Z,36.00
2022-09-21T21:20:09.764Z,35.90
2022-09-21T21:22:37.087Z,35.90
2022-09-21T21:25:04.751Z,35.90
2022-09-21T21:27:32.451Z,36.10
2022-09-21T21:29:59.968Z,36.20
2022-09-21T21:32:27.920Z,36.30
2022-09-21T21:34:56.576Z,36.30
2022-09-21T21:37:25.656Z,36.30
2022-09-21T21:39:54.285Z,36.20
2022-09-21T21:42:22.160Z,36.10
2022-09-21T21:44:50.826Z,36.20
2022-09-21T21:47:38.642Z,36.30
2022-09-21T21:50:06.408Z,36.30
2022-09-21T21:52:33.433Z,36.40
2022-09-21T21:55:00.332Z,36.40
2022-09-21T21:57:27.230Z,36.40
2022-09-21T21:59:55.862Z,36.40
2022-09-21T22:02:23.622Z,36.40
2022-09-21T22:04:50.611Z,36.40
2022-09-21T22:07:17.602Z,36.30
2022-09-21T22:09:44.551Z,36.20
2022-09-21T22:12:12.647Z,36.10
2022-09-21T22:14:39.881Z,36.10
2022-09-21T22:17:06.976Z,36.20
2022-09-21T22:19:33.892Z,36.20
2022-09-21T22:22:00.829Z,36.20
2022-09-21T22:24:27.751Z,36.10
2022-09-21T22:26:54.799Z,36.10
2022-09-21T22:29:21.899Z,36.10
2022-09-21T22:31:50.871Z,36.00
2022-09-21T22:34:18.032Z,36.00
2022-09-21T22:36:45.665Z,36.00
2022-09-21T22:39:13.134Z,35.90
2022-09-21T22:41:42.285Z,35.80
2022-09-21T22:44:10.834Z,35.80
2022-09-21T22:46:38.501Z,35.90
2022-09-21T22:49:06.167Z,35.80
2022-09-21T22:51:33.531Z,35.70
2022-09-21T22:54:01.649Z,35.70
2022-09-21T22:56:32.904Z,35.70
2022-09-21T22:59:01.352Z,35.80
2022-09-21T23:01:34.467Z,35.80
2022-09-21T23:04:04.091Z,35.70
2022-09-21T23:06:33.581Z,35.70
2022-09-21T23:09:03.923Z,35.70
2022-09-21T23:11:37.520Z,35.70
2022-09-21T23:14:05.541Z,35.60
2022-09-21T23:16:32.976Z,35.40
2022-09-21T23:19:00.490Z,35.40
2022-09-21T23:21:30.124Z,35.40
2022-09-21T23:24:01.718Z,35.50
2022-09-21T23:26:31.182Z,35.60
2022-09-21T23:29:01.264Z,35.60
2022-09-21T23:31:29.439Z,35.60
2022-09-21T23:33:59.737Z,35.70
2022-09-21T23:36:29.249Z,35.60
2022-09-21T23:38:57.167Z,35.70
2022-09-21T23:41:32.177Z,35.70
2022-09-21T23:43:59.551Z,35.80
2022-09-21T23:46:30.002Z,35.80
2022-09-21T23:48:58.024Z,35.60
2022-09-21T23:51:25.941Z,34.80
2022-09-21T23:53:53.280Z,34.80
2022-09-21T23:56:23.145Z,34.90
2022-09-21T23:58:50.674Z,34.90
